sensor_id;sensor_type;location;lat;lon;timestamp;P1;durP1;ratioP1;P2;durP2;ratioP2
55827;SDS011;41758;51.992;5.890;2023-04-03T00:01:00;6.15;;;3.50;;
55827;SDS011;41758;51.992;5.890;2023-04-03T00:03:26;5.47;;;3.33;;
55827;SDS011;41758;51.992;5.890;2023-04-03T00:05:52;5.47;;;3.20;;
55827;SDS011;41758;51.992;5.890;2023-04-03T00:08:18;5.22;;;2.97;;
55827;SDS011;41758;51.992;5.890;2023-04-03T00:10:44;5.00;;;2.85;;
55827;SDS011;41758;51.992;5.890;2023-04-03T00:13:10;5.18;;;3.25;;
55827;SDS011;41758;51.992;5.890;2023-04-03T00:15:36;5.25;;;3.22;;
55827;SDS011;41758;51.992;5.890;2023-04-03T00:18:02;6.80;;;3.10;;
55827;SDS011;41758;51.992;5.890;2023-04-03T00:20:28;5.30;;;3.28;;
55827;SDS011;41758;51.992;5.890;2023-04-03T00:22:54;4.90;;;3.08;;
55827;SDS011;41758;51.992;5.890;2023-04-03T00:25:20;5.88;;;2.92;;
55827;SDS011;41758;51.992;5.890;2023-04-03T00:27:47;5.55;;;2.85;;
55827;SDS011;41758;51.992;5.890;2023-04-03T00:30:13;5.38;;;3.03;;
55827;SDS011;41758;51.992;5.890;2023-04-03T00:32:41;5.95;;;3.10;;
55827;SDS011;41758;51.992;5.890;2023-04-03T00:35:07;6.22;;;3.33;;
55827;SDS011;41758;51.992;5.890;2023-04-03T00:37:33;4.90;;;3.17;;
55827;SDS011;41758;51.992;5.890;2023-04-03T00:39:59;4.93;;;3.10;;
55827;SDS011;41758;51.992;5.890;2023-04-03T00:42:25;6.28;;;3.13;;
55827;SDS011;41758;51.992;5.890;2023-04-03T00:47:22;8.00;;;3.30;;
55827;SDS011;41758;51.992;5.890;2023-04-03T00:49:50;5.50;;;3.03;;
55827;SDS011;41758;51.992;5.890;2023-04-03T00:52:17;5.25;;;3.03;;
55827;SDS011;41758;51.992;5.890;2023-04-03T00:54:46;5.47;;;3.22;;
55827;SDS011;41758;51.992;5.890;2023-04-03T00:57:14;4.22;;;2.80;;
55827;SDS011;41758;51.992;5.890;2023-04-03T00:59:49;5.03;;;2.58;;
55827;SDS011;41758;51.992;5.890;2023-04-03T01:02:18;4.60;;;2.63;;
55827;SDS011;41758;51.992;5.890;2023-04-03T01:04:44;5.40;;;3.10;;
55827;SDS011;41758;51.992;5.890;2023-04-03T01:07:13;5.15;;;2.90;;
55827;SDS011;41758;51.992;5.890;2023-04-03T01:09:42;5.90;;;2.83;;
55827;SDS011;41758;51.992;5.890;2023-04-03T01:12:23;6.28;;;3.05;;
55827;SDS011;41758;51.992;5.890;2023-04-03T01:14:51;5.05;;;3.10;;
55827;SDS011;41758;51.992;5.890;2023-04-03T01:17:54;5.82;;;2.78;;
55827;SDS011;41758;51.992;5.890;2023-04-03T01:25:39;4.82;;;2.65;;
55827;SDS011;41758;51.992;5.890;2023-04-03T01:28:06;7.22;;;2.80;;
55827;SDS011;41758;51.992;5.890;2023-04-03T01:30:35;4.97;;;2.60;;
55827;SDS011;41758;51.992;5.890;2023-04-03T01:33:08;6.75;;;3.00;;
55827;SDS011;41758;51.992;5.890;2023-04-03T01:35:34;4.78;;;2.83;;
55827;SDS011;41758;51.992;5.890;2023-04-03T01:38:00;6.93;;;3.20;;
55827;SDS011;41758;51.992;5.890;2023-04-03T01:40:25;5.38;;;2.90;;
55827;SDS011;41758;51.992;5.890;2023-04-03T01:42:51;4.90;;;2.83;;
55827;SDS011;41758;51.992;5.890;2023-04-03T01:45:17;4.90;;;2.92;;
55827;SDS011;41758;51.992;5.890;2023-04-03T01:47:42;4.65;;;2.80;;
55827;SDS011;41758;51.992;5.890;2023-04-03T01:50:08;5.40;;;2.90;;
55827;SDS011;41758;51.992;5.890;2023-04-03T01:52:34;4.88;;;2.88;;
55827;SDS011;41758;51.992;5.890;2023-04-03T01:55:00;5.88;;;2.72;;
55827;SDS011;41758;51.992;5.890;2023-04-03T01:57:26;5.32;;;3.10;;
55827;SDS011;41758;51.992;5.890;2023-04-03T01:59:51;5.18;;;2.70;;
55827;SDS011;41758;51.992;5.890;2023-04-03T02:02:17;6.60;;;2.70;;
55827;SDS011;41758;51.992;5.890;2023-04-03T02:04:45;6.47;;;2.90;;
55827;SDS011;41758;51.992;5.890;2023-04-03T02:07:11;4.70;;;2.95;;
55827;SDS011;41758;51.992;5.890;2023-04-03T02:09:36;7.18;;;3.03;;
55827;SDS011;41758;51.992;5.890;2023-04-03T02:12:02;7.00;;;3.00;;
55827;SDS011;41758;51.992;5.890;2023-04-03T02:14:29;5.93;;;3.20;;
55827;SDS011;41758;51.992;5.890;2023-04-03T02:16:54;8.32;;;3.10;;
55827;SDS011;41758;51.992;5.890;2023-04-03T02:19:21;6.55;;;3.03;;
55827;SDS011;41758;51.992;5.890;2023-04-03T02:21:47;6.05;;;3.10;;
55827;SDS011;41758;51.992;5.890;2023-04-03T02:24:14;6.10;;;2.95;;
55827;SDS011;41758;51.992;5.890;2023-04-03T02:26:39;6.15;;;2.95;;
55827;SDS011;41758;51.992;5.890;2023-04-03T02:29:05;5.85;;;3.40;;
55827;SDS011;41758;51.992;5.890;2023-04-03T02:31:31;6.20;;;2.95;;
55827;SDS011;41758;51.992;5.890;2023-04-03T02:33:58;5.82;;;3.22;;
55827;SDS011;41758;51.992;5.890;2023-04-03T02:36:24;7.28;;;3.25;;
55827;SDS011;41758;51.992;5.890;2023-04-03T02:38:54;5.63;;;2.90;;
55827;SDS011;41758;51.992;5.890;2023-04-03T02:41:21;5.03;;;3.05;;
55827;SDS011;41758;51.992;5.890;2023-04-03T02:43:49;5.88;;;3.10;;
55827;SDS011;41758;51.992;5.890;2023-04-03T02:46:15;5.25;;;3.08;;
55827;SDS011;41758;51.992;5.890;2023-04-03T02:48:41;6.22;;;3.35;;
55827;SDS011;41758;51.992;5.890;2023-04-03T02:51:07;7.88;;;3.33;;
55827;SDS011;41758;51.992;5.890;2023-04-03T02:53:32;5.80;;;3.15;;
55827;SDS011;41758;51.992;5.890;2023-04-03T02:56:04;5.10;;;3.00;;
55827;SDS011;41758;51.992;5.890;2023-04-03T02:58:30;5.40;;;2.95;;
55827;SDS011;41758;51.992;5.890;2023-04-03T03:00:58;6.85;;;3.05;;
55827;SDS011;41758;51.992;5.890;2023-04-03T03:03:24;6.80;;;3.10;;
55827;SDS011;41758;51.992;5.890;2023-04-03T03:05:49;5.78;;;3.08;;
55827;SDS011;41758;51.992;5.890;2023-04-03T03:08:15;6.88;;;2.92;;
55827;SDS011;41758;51.992;5.890;2023-04-03T03:10:41;5.45;;;3.13;;
55827;SDS011;41758;51.992;5.890;2023-04-03T03:13:06;5.30;;;2.85;;
55827;SDS011;41758;51.992;5.890;2023-04-03T03:15:32;6.25;;;3.38;;
55827;SDS011;41758;51.992;5.890;2023-04-03T03:17:58;5.25;;;2.92;;
55827;SDS011;41758;51.992;5.890;2023-04-03T03:20:24;5.97;;;2.90;;
55827;SDS011;41758;51.992;5.890;2023-04-03T03:22:50;6.07;;;3.13;;
55827;SDS011;41758;51.992;5.890;2023-04-03T03:25:16;6.47;;;3.00;;
55827;SDS011;41758;51.992;5.890;2023-04-03T03:27:41;7.10;;;2.95;;
55827;SDS011;41758;51.992;5.890;2023-04-03T03:30:07;5.43;;;3.00;;
55827;SDS011;41758;51.992;5.890;2023-04-03T03:32:33;5.40;;;2.90;;
55827;SDS011;41758;51.992;5.890;2023-04-03T03:35:00;5.63;;;3.15;;
55827;SDS011;41758;51.992;5.890;2023-04-03T03:37:26;5.63;;;3.00;;
55827;SDS011;41758;51.992;5.890;2023-04-03T03:39:52;7.78;;;3.58;;
55827;SDS011;41758;51.992;5.890;2023-04-03T03:42:18;5.72;;;3.28;;
55827;SDS011;41758;51.992;5.890;2023-04-03T03:44:44;7.43;;;3.15;;
55827;SDS011;41758;51.992;5.890;2023-04-03T03:47:10;5.68;;;3.30;;
55827;SDS011;41758;51.992;5.890;2023-04-03T03:49:37;5.70;;;3.00;;
55827;SDS011;41758;51.992;5.890;2023-04-03T03:52:02;5.78;;;2.90;;
55827;SDS011;41758;51.992;5.890;2023-04-03T03:54:28;5.60;;;2.70;;
55827;SDS011;41758;51.992;5.890;2023-04-03T03:56:54;5.47;;;2.80;;
55827;SDS011;41758;51.992;5.890;2023-04-03T03:59:22;6.15;;;3.15;;
55827;SDS011;41758;51.992;5.890;2023-04-03T04:01:48;5.68;;;3.00;;
55827;SDS011;41758;51.992;5.890;2023-04-03T04:04:14;7.00;;;3.15;;
55827;SDS011;41758;51.992;5.890;2023-04-03T04:06:40;6.07;;;3.05;;
55827;SDS011;41758;51.992;5.890;2023-04-03T04:09:08;6.90;;;3.33;;
55827;SDS011;41758;51.992;5.890;2023-04-03T04:11:34;6.55;;;2.83;;
55827;SDS011;41758;51.992;5.890;2023-04-03T04:14:01;5.03;;;2.90;;
55827;SDS011;41758;51.992;5.890;2023-04-03T04:16:28;4.90;;;3.00;;
55827;SDS011;41758;51.992;5.890;2023-04-03T04:18:57;5.90;;;3.10;;
55827;SDS011;41758;51.992;5.890;2023-04-03T04:21:23;7.18;;;3.13;;
55827;SDS011;41758;51.992;5.890;2023-04-03T04:23:51;5.78;;;3.45;;
55827;SDS011;41758;51.992;5.890;2023-04-03T04:26:17;5.13;;;3.20;;
55827;SDS011;41758;51.992;5.890;2023-04-03T04:28:42;5.05;;;3.00;;
55827;SDS011;41758;51.992;5.890;2023-04-03T04:31:08;5.75;;;3.30;;
55827;SDS011;41758;51.992;5.890;2023-04-03T04:33:34;5.25;;;3.13;;
55827;SDS011;41758;51.992;5.890;2023-04-03T04:36:03;6.72;;;3.22;;
55827;SDS011;41758;51.992;5.890;2023-04-03T04:38:29;7.28;;;2.90;;
55827;SDS011;41758;51.992;5.890;2023-04-03T04:40:56;7.70;;;3.42;;
55827;SDS011;41758;51.992;5.890;2023-04-03T04:43:22;5.55;;;3.50;;
55827;SDS011;41758;51.992;5.890;2023-04-03T04:45:59;6.82;;;3.67;;
55827;SDS011;41758;51.992;5.890;2023-04-03T04:48:27;5.50;;;3.20;;
55827;SDS011;41758;51.992;5.890;2023-04-03T04:50:53;6.70;;;3.20;;
55827;SDS011;41758;51.992;5.890;2023-04-03T04:53:18;6.05;;;2.95;;
55827;SDS011;41758;51.992;5.890;2023-04-03T04:55:44;5.78;;;3.00;;
55827;SDS011;41758;51.992;5.890;2023-04-03T04:58:10;5.88;;;3.00;;
55827;SDS011;41758;51.992;5.890;2023-04-03T05:00:36;5.85;;;3.20;;
55827;SDS011;41758;51.992;5.890;2023-04-03T05:03:02;6.40;;;3.00;;
55827;SDS011;41758;51.992;5.890;2023-04-03T05:05:28;5.18;;;3.10;;
55827;SDS011;41758;51.992;5.890;2023-04-03T05:07:54;5.13;;;3.10;;
55827;SDS011;41758;51.992;5.890;2023-04-03T05:10:20;6.38;;;3.15;;
55827;SDS011;41758;51.992;5.890;2023-04-03T05:12:45;7.35;;;3.35;;
55827;SDS011;41758;51.992;5.890;2023-04-03T05:15:11;5.72;;;3.35;;
55827;SDS011;41758;51.992;5.890;2023-04-03T05:17:37;6.32;;;3.20;;
55827;SDS011;41758;51.992;5.890;2023-04-03T05:20:05;7.15;;;3.28;;
55827;SDS011;41758;51.992;5.890;2023-04-03T05:22:33;5.63;;;3.10;;
55827;SDS011;41758;51.992;5.890;2023-04-03T05:25:04;5.35;;;2.92;;
55827;SDS011;41758;51.992;5.890;2023-04-03T05:27:30;5.95;;;2.95;;
55827;SDS011;41758;51.992;5.890;2023-04-03T05:29:57;7.20;;;3.00;;
55827;SDS011;41758;51.992;5.890;2023-04-03T05:32:24;6.60;;;3.30;;
55827;SDS011;41758;51.992;5.890;2023-04-03T05:35:02;7.82;;;3.65;;
55827;SDS011;41758;51.992;5.890;2023-04-03T05:37:28;7.75;;;3.30;;
55827;SDS011;41758;51.992;5.890;2023-04-03T05:39:54;6.45;;;3.17;;
55827;SDS011;41758;51.992;5.890;2023-04-03T05:42:20;6.30;;;3.50;;
55827;SDS011;41758;51.992;5.890;2023-04-03T05:44:46;6.05;;;3.05;;
55827;SDS011;41758;51.992;5.890;2023-04-03T05:47:13;6.63;;;3.28;;
55827;SDS011;41758;51.992;5.890;2023-04-03T05:49:38;6.95;;;3.10;;
55827;SDS011;41758;51.992;5.890;2023-04-03T05:52:11;7.72;;;3.70;;
55827;SDS011;41758;51.992;5.890;2023-04-03T05:54:47;6.78;;;3.40;;
55827;SDS011;41758;51.992;5.890;2023-04-03T05:57:18;6.53;;;3.20;;
55827;SDS011;41758;51.992;5.890;2023-04-03T05:59:45;6.75;;;3.47;;
55827;SDS011;41758;51.992;5.890;2023-04-03T06:02:13;7.13;;;3.05;;
55827;SDS011;41758;51.992;5.890;2023-04-03T06:04:44;6.93;;;3.22;;
55827;SDS011;41758;51.992;5.890;2023-04-03T06:07:17;5.97;;;3.08;;
55827;SDS011;41758;51.992;5.890;2023-04-03T06:09:49;6.25;;;3.35;;
55827;SDS011;41758;51.992;5.890;2023-04-03T06:12:16;5.13;;;2.95;;
55827;SDS011;41758;51.992;5.890;2023-04-03T06:14:43;5.25;;;3.10;;
55827;SDS011;41758;51.992;5.890;2023-04-03T06:17:08;6.10;;;3.25;;
55827;SDS011;41758;51.992;5.890;2023-04-03T06:19:34;8.30;;;3.20;;
55827;SDS011;41758;51.992;5.890;2023-04-03T06:22:01;5.88;;;3.10;;
55827;SDS011;41758;51.992;5.890;2023-04-03T06:24:28;7.15;;;3.45;;
55827;SDS011;41758;51.992;5.890;2023-04-03T06:26:55;8.10;;;3.55;;
55827;SDS011;41758;51.992;5.890;2023-04-03T06:29:22;5.47;;;3.20;;
55827;SDS011;41758;51.992;5.890;2023-04-03T06:31:48;7.63;;;3.72;;
55827;SDS011;41758;51.992;5.890;2023-04-03T06:34:14;6.88;;;3.55;;
55827;SDS011;41758;51.992;5.890;2023-04-03T06:36:40;7.32;;;3.40;;
55827;SDS011;41758;51.992;5.890;2023-04-03T06:39:08;5.70;;;3.08;;
55827;SDS011;41758;51.992;5.890;2023-04-03T06:41:36;6.95;;;3.42;;
55827;SDS011;41758;51.992;5.890;2023-04-03T06:44:02;6.60;;;3.40;;
55827;SDS011;41758;51.992;5.890;2023-04-03T06:46:28;7.05;;;3.15;;
55827;SDS011;41758;51.992;5.890;2023-04-03T06:48:54;7.10;;;3.50;;
55827;SDS011;41758;51.992;5.890;2023-04-03T06:51:26;6.40;;;3.30;;
55827;SDS011;41758;51.992;5.890;2023-04-03T06:53:56;6.57;;;3.10;;
55827;SDS011;41758;51.992;5.890;2023-04-03T06:56:23;7.78;;;3.50;;
55827;SDS011;41758;51.992;5.890;2023-04-03T06:58:50;8.30;;;3.20;;
55827;SDS011;41758;51.992;5.890;2023-04-03T07:01:17;6.25;;;3.10;;
55827;SDS011;41758;51.992;5.890;2023-04-03T07:03:44;6.70;;;3.47;;
55827;SDS011;41758;51.992;5.890;2023-04-03T07:06:12;6.03;;;3.33;;
55827;SDS011;41758;51.992;5.890;2023-04-03T07:08:38;6.32;;;3.20;;
55827;SDS011;41758;51.992;5.890;2023-04-03T07:11:04;6.30;;;3.08;;
55827;SDS011;41758;51.992;5.890;2023-04-03T07:13:31;6.93;;;3.08;;
55827;SDS011;41758;51.992;5.890;2023-04-03T07:15:57;7.72;;;3.10;;
55827;SDS011;41758;51.992;5.890;2023-04-03T07:18:23;6.47;;;3.35;;
55827;SDS011;41758;51.992;5.890;2023-04-03T07:20:49;7.70;;;3.30;;
55827;SDS011;41758;51.992;5.890;2023-04-03T07:23:15;7.65;;;3.42;;
55827;SDS011;41758;51.992;5.890;2023-04-03T07:25:44;8.25;;;3.50;;
55827;SDS011;41758;51.992;5.890;2023-04-03T07:28:11;6.85;;;3.28;;
55827;SDS011;41758;51.992;5.890;2023-04-03T07:30:58;8.77;;;3.25;;
55827;SDS011;41758;51.992;5.890;2023-04-03T07:33:25;6.47;;;3.20;;
55827;SDS011;41758;51.992;5.890;2023-04-03T07:35:51;5.90;;;3.08;;
55827;SDS011;41758;51.992;5.890;2023-04-03T07:38:17;5.18;;;2.80;;
55827;SDS011;41758;51.992;5.890;2023-04-03T07:40:49;5.47;;;2.80;;
55827;SDS011;41758;51.992;5.890;2023-04-03T07:43:18;6.25;;;2.85;;
55827;SDS011;41758;51.992;5.890;2023-04-03T07:45:45;6.55;;;3.10;;
55827;SDS011;41758;51.992;5.890;2023-04-03T07:48:14;6.03;;;3.20;;
55827;SDS011;41758;51.992;5.890;2023-04-03T07:50:42;6.45;;;2.90;;
55827;SDS011;41758;51.992;5.890;2023-04-03T07:53:08;7.15;;;3.30;;
55827;SDS011;41758;51.992;5.890;2023-04-03T07:55:34;5.43;;;2.55;;
55827;SDS011;41758;51.992;5.890;2023-04-03T07:58:05;7.28;;;2.55;;
55827;SDS011;41758;51.992;5.890;2023-04-03T08:00:31;6.28;;;2.95;;
55827;SDS011;41758;51.992;5.890;2023-04-03T08:02:57;5.50;;;2.80;;
55827;SDS011;41758;51.992;5.890;2023-04-03T08:05:22;9.30;;;3.25;;
55827;SDS011;41758;51.992;5.890;2023-04-03T08:07:48;7.70;;;2.90;;
55827;SDS011;41758;51.992;5.890;2023-04-03T08:10:14;6.57;;;2.90;;
55827;SDS011;41758;51.992;5.890;2023-04-03T08:12:40;6.18;;;2.78;;
55827;SDS011;41758;51.992;5.890;2023-04-03T08:15:07;5.72;;;2.67;;
55827;SDS011;41758;51.992;5.890;2023-04-03T08:17:33;6.63;;;2.88;;
55827;SDS011;41758;51.992;5.890;2023-04-03T08:19:59;7.18;;;2.65;;
55827;SDS011;41758;51.992;5.890;2023-04-03T08:22:25;5.93;;;2.42;;
55827;SDS011;41758;51.992;5.890;2023-04-03T08:24:51;4.82;;;2.30;;
55827;SDS011;41758;51.992;5.890;2023-04-03T08:27:17;6.03;;;2.80;;
55827;SDS011;41758;51.992;5.890;2023-04-03T08:29:43;5.57;;;2.40;;
55827;SDS011;41758;51.992;5.890;2023-04-03T08:32:08;5.13;;;2.20;;
55827;SDS011;41758;51.992;5.890;2023-04-03T08:34:34;5.90;;;2.78;;
55827;SDS011;41758;51.992;5.890;2023-04-03T08:37:01;4.47;;;2.42;;
55827;SDS011;41758;51.992;5.890;2023-04-03T08:39:27;5.78;;;2.35;;
55827;SDS011;41758;51.992;5.890;2023-04-03T08:41:54;6.55;;;2.63;;
55827;SDS011;41758;51.992;5.890;2023-04-03T08:44:39;4.72;;;2.20;;
55827;SDS011;41758;51.992;5.890;2023-04-03T08:50:04;6.68;;;2.20;;
55827;SDS011;41758;51.992;5.890;2023-04-03T08:52:39;3.78;;;2.20;;
55827;SDS011;41758;51.992;5.890;2023-04-03T08:57:51;4.05;;;2.00;;
55827;SDS011;41758;51.992;5.890;2023-04-03T09:00:50;10.90;;;3.97;;
55827;SDS011;41758;51.992;5.890;2023-04-03T09:03:20;4.18;;;2.20;;
55827;SDS011;41758;51.992;5.890;2023-04-03T09:08:37;6.13;;;2.83;;
55827;SDS011;41758;51.992;5.890;2023-04-03T09:11:14;4.15;;;2.00;;
55827;SDS011;41758;51.992;5.890;2023-04-03T09:16:59;3.67;;;1.58;;
55827;SDS011;41758;51.992;5.890;2023-04-03T09:22:17;4.45;;;1.77;;
55827;SDS011;41758;51.992;5.890;2023-04-03T09:25:11;3.00;;;1.70;;
55827;SDS011;41758;51.992;5.890;2023-04-03T09:27:43;3.80;;;1.77;;
55827;SDS011;41758;51.992;5.890;2023-04-03T09:30:13;4.28;;;1.80;;
55827;SDS011;41758;51.992;5.890;2023-04-03T09:32:41;2.58;;;1.50;;
55827;SDS011;41758;51.992;5.890;2023-04-03T09:38:13;3.13;;;1.48;;
55827;SDS011;41758;51.992;5.890;2023-04-03T09:40:45;3.97;;;1.70;;
55827;SDS011;41758;51.992;5.890;2023-04-03T09:43:30;3.25;;;1.40;;
55827;SDS011;41758;51.992;5.890;2023-04-03T09:49:04;4.13;;;1.60;;
55827;SDS011;41758;51.992;5.890;2023-04-03T09:51:31;3.03;;;1.60;;
55827;SDS011;41758;51.992;5.890;2023-04-03T09:53:57;3.25;;;1.60;;
55827;SDS011;41758;51.992;5.890;2023-04-03T09:56:27;2.47;;;1.50;;
55827;SDS011;41758;51.992;5.890;2023-04-03T10:01:33;3.25;;;1.60;;
55827;SDS011;41758;51.992;5.890;2023-04-03T10:04:11;2.83;;;1.48;;
55827;SDS011;41758;51.992;5.890;2023-04-03T10:09:30;4.47;;;1.50;;
55827;SDS011;41758;51.992;5.890;2023-04-03T10:12:03;2.55;;;1.55;;
55827;SDS011;41758;51.992;5.890;2023-04-03T10:14:38;3.15;;;1.60;;
55827;SDS011;41758;51.992;5.890;2023-04-03T10:17:13;4.18;;;1.60;;
55827;SDS011;41758;51.992;5.890;2023-04-03T10:19:53;4.63;;;1.63;;
55827;SDS011;41758;51.992;5.890;2023-04-03T10:22:54;3.22;;;1.88;;
55827;SDS011;41758;51.992;5.890;2023-04-03T10:28:37;3.50;;;2.08;;
55827;SDS011;41758;51.992;5.890;2023-04-03T10:31:14;2.90;;;1.77;;
55827;SDS011;41758;51.992;5.890;2023-04-03T10:33:51;3.78;;;1.60;;
55827;SDS011;41758;51.992;5.890;2023-04-03T10:36:29;3.88;;;1.90;;
55827;SDS011;41758;51.992;5.890;2023-04-03T10:42:13;3.40;;;1.95;;
55827;SDS011;41758;51.992;5.890;2023-04-03T10:47:54;2.78;;;1.70;;
55827;SDS011;41758;51.992;5.890;2023-04-03T10:56:12;3.22;;;1.42;;
55827;SDS011;41758;51.992;5.890;2023-04-03T10:59:00;3.28;;;1.90;;
55827;SDS011;41758;51.992;5.890;2023-04-03T11:01:41;3.55;;;1.83;;
55827;SDS011;41758;51.992;5.890;2023-04-03T11:04:10;2.88;;;1.60;;
55827;SDS011;41758;51.992;5.890;2023-04-03T11:06:43;3.60;;;1.60;;
55827;SDS011;41758;51.992;5.890;2023-04-03T11:11:49;3.03;;;1.60;;
55827;SDS011;41758;51.992;5.890;2023-04-03T11:19:38;2.58;;;1.42;;
55827;SDS011;41758;51.992;5.890;2023-04-03T11:22:16;3.10;;;1.67;;
55827;SDS011;41758;51.992;5.890;2023-04-03T11:25:02;3.60;;;1.70;;
55827;SDS011;41758;51.992;5.890;2023-04-03T11:27:42;3.78;;;1.85;;
55827;SDS011;41758;51.992;5.890;2023-04-03T11:30:22;3.75;;;1.85;;
55827;SDS011;41758;51.992;5.890;2023-04-03T11:33:09;3.33;;;1.55;;
55827;SDS011;41758;51.992;5.890;2023-04-03T11:35:54;3.03;;;1.60;;
55827;SDS011;41758;51.992;5.890;2023-04-03T11:38:25;3.83;;;1.50;;
55827;SDS011;41758;51.992;5.890;2023-04-03T11:40:55;3.13;;;1.40;;
55827;SDS011;41758;51.992;5.890;2023-04-03T11:43:27;3.05;;;1.52;;
55827;SDS011;41758;51.992;5.890;2023-04-03T11:45:56;3.47;;;1.55;;
55827;SDS011;41758;51.992;5.890;2023-04-03T11:50:53;2.80;;;1.52;;
55827;SDS011;41758;51.992;5.890;2023-04-03T11:53:36;2.55;;;1.58;;
55827;SDS011;41758;51.992;5.890;2023-04-03T11:58:31;3.65;;;1.52;;
55827;SDS011;41758;51.992;5.890;2023-04-03T12:01:10;3.75;;;1.45;;
55827;SDS011;41758;51.992;5.890;2023-04-03T12:26:44;3.20;;;1.60;;
55827;SDS011;41758;51.992;5.890;2023-04-03T12:40:25;3.30;;;1.60;;
55827;SDS011;41758;51.992;5.890;2023-04-03T12:45:43;2.72;;;1.38;;
55827;SDS011;41758;51.992;5.890;2023-04-03T12:51:14;3.90;;;1.40;;
55827;SDS011;41758;51.992;5.890;2023-04-03T12:53:43;3.60;;;1.60;;
55827;SDS011;41758;51.992;5.890;2023-04-03T12:56:24;5.50;;;1.75;;
55827;SDS011;41758;51.992;5.890;2023-04-03T12:58:52;4.22;;;1.50;;
55827;SDS011;41758;51.992;5.890;2023-04-03T13:01:23;2.97;;;1.40;;
55827;SDS011;41758;51.992;5.890;2023-04-03T13:03:52;2.67;;;1.50;;
55827;SDS011;41758;51.992;5.890;2023-04-03T13:09:20;3.60;;;1.60;;
55827;SDS011;41758;51.992;5.890;2023-04-03T13:11:48;3.47;;;1.70;;
55827;SDS011;41758;51.992;5.890;2023-04-03T13:14:20;5.40;;;1.70;;
55827;SDS011;41758;51.992;5.890;2023-04-03T13:16:54;4.00;;;1.70;;
55827;SDS011;41758;51.992;5.890;2023-04-03T13:19:25;3.35;;;1.60;;
55827;SDS011;41758;51.992;5.890;2023-04-03T13:21:56;3.38;;;1.80;;
55827;SDS011;41758;51.992;5.890;2023-04-03T13:24:30;3.42;;;1.67;;
55827;SDS011;41758;51.992;5.890;2023-04-03T13:26:59;3.90;;;1.95;;
55827;SDS011;41758;51.992;5.890;2023-04-03T13:29:26;3.30;;;1.70;;
55827;SDS011;41758;51.992;5.890;2023-04-03T13:31:55;3.35;;;1.63;;
55827;SDS011;41758;51.992;5.890;2023-04-03T13:34:24;4.10;;;1.65;;
55827;SDS011;41758;51.992;5.890;2023-04-03T13:41:49;3.65;;;1.85;;
55827;SDS011;41758;51.992;5.890;2023-04-03T13:46:58;3.60;;;1.88;;
55827;SDS011;41758;51.992;5.890;2023-04-03T13:52:21;3.42;;;1.70;;
55827;SDS011;41758;51.992;5.890;2023-04-03T13:54:47;5.72;;;1.95;;
55827;SDS011;41758;51.992;5.890;2023-04-03T13:57:19;3.60;;;1.88;;
55827;SDS011;41758;51.992;5.890;2023-04-03T13:59:45;2.70;;;1.60;;
55827;SDS011;41758;51.992;5.890;2023-04-03T14:04:58;3.45;;;1.80;;
55827;SDS011;41758;51.992;5.890;2023-04-03T14:07:27;3.63;;;1.80;;
55827;SDS011;41758;51.992;5.890;2023-04-03T14:09:54;3.47;;;1.50;;
55827;SDS011;41758;51.992;5.890;2023-04-03T14:15:03;3.35;;;1.73;;
55827;SDS011;41758;51.992;5.890;2023-04-03T14:17:35;5.45;;;1.90;;
55827;SDS011;41758;51.992;5.890;2023-04-03T14:20:02;5.25;;;2.22;;
55827;SDS011;41758;51.992;5.890;2023-04-03T14:22:31;3.03;;;1.60;;
55827;SDS011;41758;51.992;5.890;2023-04-03T14:24:58;2.75;;;1.60;;
55827;SDS011;41758;51.992;5.890;2023-04-03T14:27:26;2.95;;;1.70;;
55827;SDS011;41758;51.992;5.890;2023-04-03T14:29:54;3.15;;;1.65;;
55827;SDS011;41758;51.992;5.890;2023-04-03T14:32:21;4.00;;;2.00;;
55827;SDS011;41758;51.992;5.890;2023-04-03T14:34:48;3.45;;;1.80;;
55827;SDS011;41758;51.992;5.890;2023-04-03T14:37:16;4.57;;;1.90;;
55827;SDS011;41758;51.992;5.890;2023-04-03T14:39:44;4.13;;;1.90;;
55827;SDS011;41758;51.992;5.890;2023-04-03T14:42:12;4.57;;;2.20;;
55827;SDS011;41758;51.992;5.890;2023-04-03T14:44:40;5.70;;;2.13;;
55827;SDS011;41758;51.992;5.890;2023-04-03T14:47:09;6.45;;;2.15;;
55827;SDS011;41758;51.992;5.890;2023-04-03T14:49:39;4.32;;;2.15;;
55827;SDS011;41758;51.992;5.890;2023-04-03T14:52:06;4.85;;;1.98;;
55827;SDS011;41758;51.992;5.890;2023-04-03T14:54:40;4.72;;;1.90;;
55827;SDS011;41758;51.992;5.890;2023-04-03T14:57:08;5.00;;;2.00;;
55827;SDS011;41758;51.992;5.890;2023-04-03T14:59:36;5.13;;;2.10;;
55827;SDS011;41758;51.992;5.890;2023-04-03T15:02:02;5.55;;;2.20;;
55827;SDS011;41758;51.992;5.890;2023-04-03T15:04:32;4.22;;;2.08;;
55827;SDS011;41758;51.992;5.890;2023-04-03T15:06:57;4.82;;;2.00;;
55827;SDS011;41758;51.992;5.890;2023-04-03T15:09:24;3.17;;;2.00;;
55827;SDS011;41758;51.992;5.890;2023-04-03T15:11:52;5.03;;;1.95;;
55827;SDS011;41758;51.992;5.890;2023-04-03T15:14:19;6.68;;;2.40;;
55827;SDS011;41758;51.992;5.890;2023-04-03T15:16:45;3.38;;;1.70;;
55827;SDS011;41758;51.992;5.890;2023-04-03T15:19:11;5.15;;;1.90;;
55827;SDS011;41758;51.992;5.890;2023-04-03T15:21:37;4.32;;;2.00;;
55827;SDS011;41758;51.992;5.890;2023-04-03T15:24:04;3.63;;;2.08;;
55827;SDS011;41758;51.992;5.890;2023-04-03T15:26:30;3.90;;;1.83;;
55827;SDS011;41758;51.992;5.890;2023-04-03T15:28:57;3.72;;;1.80;;
55827;SDS011;41758;51.992;5.890;2023-04-03T15:31:23;5.15;;;1.95;;
55827;SDS011;41758;51.992;5.890;2023-04-03T15:33:48;3.90;;;1.90;;
55827;SDS011;41758;51.992;5.890;2023-04-03T15:36:14;4.38;;;1.90;;
55827;SDS011;41758;51.992;5.890;2023-04-03T15:38:40;3.50;;;1.88;;
55827;SDS011;41758;51.992;5.890;2023-04-03T15:41:05;3.90;;;1.90;;
55827;SDS011;41758;51.992;5.890;2023-04-03T15:43:31;4.88;;;2.22;;
55827;SDS011;41758;51.992;5.890;2023-04-03T15:45:58;4.90;;;2.20;;
55827;SDS011;41758;51.992;5.890;2023-04-03T15:48:25;3.65;;;2.10;;
55827;SDS011;41758;51.992;5.890;2023-04-03T15:50:52;3.40;;;1.90;;
55827;SDS011;41758;51.992;5.890;2023-04-03T15:53:18;6.30;;;2.20;;
55827;SDS011;41758;51.992;5.890;2023-04-03T15:55:44;4.18;;;1.95;;
55827;SDS011;41758;51.992;5.890;2023-04-03T15:58:10;4.20;;;1.80;;
55827;SDS011;41758;51.992;5.890;2023-04-03T16:00:36;3.80;;;2.05;;
55827;SDS011;41758;51.992;5.890;2023-04-03T16:03:06;3.75;;;2.10;;
55827;SDS011;41758;51.992;5.890;2023-04-03T16:05:36;4.28;;;2.00;;
55827;SDS011;41758;51.992;5.890;2023-04-03T16:08:03;3.25;;;1.63;;
55827;SDS011;41758;51.992;5.890;2023-04-03T16:10:30;3.35;;;1.63;;
55827;SDS011;41758;51.992;5.890;2023-04-03T16:12:56;3.50;;;1.70;;
55827;SDS011;41758;51.992;5.890;2023-04-03T16:15:22;4.78;;;2.15;;
55827;SDS011;41758;51.992;5.890;2023-04-03T16:17:49;4.00;;;1.98;;
55827;SDS011;41758;51.992;5.890;2023-04-03T16:20:15;4.90;;;2.40;;
55827;SDS011;41758;51.992;5.890;2023-04-03T16:22:42;4.45;;;1.95;;
55827;SDS011;41758;51.992;5.890;2023-04-03T16:25:08;3.90;;;1.95;;
55827;SDS011;41758;51.992;5.890;2023-04-03T16:27:35;4.63;;;2.05;;
55827;SDS011;41758;51.992;5.890;2023-04-03T16:30:00;3.97;;;1.95;;
55827;SDS011;41758;51.992;5.890;2023-04-03T16:32:28;4.80;;;2.15;;
55827;SDS011;41758;51.992;5.890;2023-04-03T16:34:55;5.72;;;2.22;;
55827;SDS011;41758;51.992;5.890;2023-04-03T16:37:21;3.45;;;2.08;;
55827;SDS011;41758;51.992;5.890;2023-04-03T16:39:47;4.13;;;2.10;;
55827;SDS011;41758;51.992;5.890;2023-04-03T16:42:12;6.05;;;2.10;;
55827;SDS011;41758;51.992;5.890;2023-04-03T16:44:38;4.93;;;2.40;;
55827;SDS011;41758;51.992;5.890;2023-04-03T16:47:05;5.95;;;2.40;;
55827;SDS011;41758;51.992;5.890;2023-04-03T16:49:32;5.38;;;2.30;;
55827;SDS011;41758;51.992;5.890;2023-04-03T16:51:59;3.92;;;2.28;;
55827;SDS011;41758;51.992;5.890;2023-04-03T16:54:29;3.72;;;2.00;;
55827;SDS011;41758;51.992;5.890;2023-04-03T16:56:55;3.85;;;2.00;;